Time;durP1;ratioP1;P1;durP2;ratioP2;P2;SDS_P1;SDS_P2;PMS_P1;PMS_P2;Temp;Humidity;BMP_temperature;BMP_pressure;BME280_temperature;BME280_humidity;BME280_pressure;Samples;Min_cycle;Max_cycle;Signal;HPM_P1;HPM_P2
2021/08/17 00:00:41;;;;;;;20.17;9.10;;;13.30;90.00;;;;;;5112234;28;20114;-78
2021/08/17 00:03:07;;;;;;;25.73;9.43;;;13.30;90.10;;;;;;5093160;28;20027;-77
2021/08/17 00:05:33;;;;;;;25.60;10.60;;;13.30;90.10;;;;;;5088146;28;20028;-78
2021/08/17 00:08:01;;;;;;;25.27;10.57;;;13.30;90.20;;;;;;5111331;28;20036;-78
2021/08/17 00:10:27;;;;;;;23.08;11.02;;;13.30;90.30;;;;;;5112700;28;20032;-78
2021/08/17 00:12:52;;;;;;;26.55;10.75;;;13.30;90.30;;;;;;5112454;28;20030;-77
2021/08/17 00:15:18;;;;;;;26.83;12.82;;;13.30;90.30;;;;;;5090102;28;20025;-77
2021/08/17 00:17:43;;;;;;;30.02;13.15;;;13.30;90.30;;;;;;5105884;28;20099;-77
2021/08/17 00:20:10;;;;;;;31.00;14.50;;;13.30;90.40;;;;;;5076229;28;20051;-77
2021/08/17 00:22:37;;;;;;;30.35;13.30;;;13.30;90.50;;;;;;5112776;28;20028;-77
2021/08/17 00:25:05;;;;;;;33.15;15.02;;;13.30;90.80;;;;;;5094048;28;20061;-78
2021/08/17 00:27:30;;;;;;;29.90;14.23;;;13.30;90.90;;;;;;5111941;28;20027;-77
2021/08/17 00:29:56;;;;;;;30.65;14.20;;;13.40;90.60;;;;;;5093913;28;20039;-77
2021/08/17 00:32:21;;;;;;;34.95;15.60;;;13.40;90.60;;;;;;5093053;28;20039;-77
2021/08/17 00:34:47;;;;;;;41.90;17.27;;;13.40;90.90;;;;;;5112384;28;20506;-78
2021/08/17 00:37:15;;;;;;;42.70;18.45;;;13.40;90.70;;;;;;5111335;28;20051;-77
2021/08/17 00:39:40;;;;;;;39.67;17.65;;;13.40;90.70;;;;;;5110966;28;20023;-78
2021/08/17 00:42:08;;;;;;;43.90;20.20;;;13.40;90.80;;;;;;5095485;28;20041;-78
2021/08/17 00:44:34;;;;;;;50.83;20.42;;;13.40;90.80;;;;;;5115645;28;20023;-77
2021/08/17 00:47:00;;;;;;;48.70;20.00;;;13.40;90.90;;;;;;5111327;28;20031;-77
2021/08/17 00:49:28;;;;;;;39.58;19.00;;;13.40;91.00;;;;;;5116264;28;20054;-77
2021/08/17 00:51:55;;;;;;;45.65;20.65;;;13.40;91.00;;;;;;5116433;28;20024;-78
2021/08/17 00:54:21;;;;;;;46.22;20.23;;;13.30;91.00;;;;;;5116418;28;20024;-77
2021/08/17 00:56:48;;;;;;;66.45;27.13;;;13.30;91.00;;;;;;5115992;28;20027;-77
2021/08/17 00:59:14;;;;;;;54.90;23.48;;;13.40;91.30;;;;;;5115819;28;20050;-77
2021/08/17 01:01:40;;;;;;;54.42;22.40;;;13.40;91.30;;;;;;5094614;28;20035;-78
2021/08/17 01:04:09;;;;;;;58.10;23.30;;;13.40;91.30;;;;;;5116100;28;20031;-77
2021/08/17 01:06:35;;;;;;;53.03;23.30;;;13.40;91.20;;;;;;5116109;28;20109;-77
2021/08/17 01:09:01;;;;;;;58.40;23.40;;;13.40;91.20;;;;;;5115998;28;20024;-78
2021/08/17 01:11:27;;;;;;;59.67;24.77;;;13.40;91.30;;;;;;5080872;28;20369;-77
2021/08/17 01:13:53;;;;;;;51.20;24.00;;;13.40;91.30;;;;;;5116129;28;20073;-77
2021/08/17 01:16:19;;;;;;;51.60;23.02;;;13.40;91.40;;;;;;5115707;28;20023;-78
2021/08/17 01:18:45;;;;;;;54.72;24.45;;;13.40;91.40;;;;;;5075514;28;20039;-78
2021/08/17 01:21:11;;;;;;;58.28;24.75;;;13.40;91.30;;;;;;5100253;28;20492;-77
2021/08/17 01:23:37;;;;;;;58.25;26.73;;;13.40;91.40;;;;;;5115619;28;20589;-77
2021/08/17 01:26:03;;;;;;;53.88;24.40;;;13.40;91.40;;;;;;5097297;28;20101;-77
2021/08/17 01:28:29;;;;;;;63.47;26.92;;;13.40;91.50;;;;;;5115428;28;20496;-77
2021/08/17 01:31:03;;;;;;;59.88;25.67;;;13.40;91.50;;;;;;5115582;28;20085;-77
2021/08/17 01:33:29;;;;;;;67.47;27.35;;;13.40;91.50;;;;;;5115637;28;20072;-77
2021/08/17 01:35:55;;;;;;;60.92;27.13;;;13.50;91.50;;;;;;5115147;28;20507;-77
2021/08/17 01:38:21;;;;;;;61.30;27.48;;;13.50;91.60;;;;;;5108583;28;20529;-77
2021/08/17 01:40:47;;;;;;;75.15;29.70;;;13.40;91.50;;;;;;5070261;28;20028;-78
2021/08/17 01:43:13;;;;;;;61.90;26.55;;;13.40;91.60;;;;;;5083166;28;20031;-78
2021/08/17 01:45:39;;;;;;;70.70;28.35;;;13.40;91.60;;;;;;5097012;28;20028;-77
2021/08/17 01:48:05;;;;;;;60.80;26.23;;;13.40;91.60;;;;;;5090188;28;20433;-77
2021/08/17 01:50:32;;;;;;;66.82;27.27;;;13.40;91.70;;;;;;5115155;28;20015;-77
2021/08/17 01:52:57;;;;;;;63.60;27.60;;;13.40;91.70;;;;;;5114947;28;20055;-77
2021/08/17 01:55:23;;;;;;;65.82;28.27;;;13.40;91.70;;;;;;5114951;28;20128;-77
2021/08/17 01:57:49;;;;;;;68.22;28.48;;;13.40;91.70;;;;;;5109403;28;20605;-77
2021/08/17 02:00:15;;;;;;;67.18;26.50;;;13.40;91.70;;;;;;5096727;28;20031;-77
2021/08/17 02:02:41;;;;;;;57.15;25.63;;;13.40;91.70;;;;;;5080028;28;20118;-77
2021/08/17 02:05:08;;;;;;;59.83;26.77;;;13.40;91.70;;;;;;5114935;28;20024;-77
2021/08/17 02:07:33;;;;;;;75.70;28.80;;;13.40;91.70;;;;;;5113925;28;20110;-77
2021/08/17 02:09:59;;;;;;;63.70;25.25;;;13.40;91.70;;;;;;5113893;28;20152;-77
2021/08/17 02:12:25;;;;;;;59.78;25.77;;;13.40;91.70;;;;;;5111563;28;20095;-77
2021/08/17 02:14:50;;;;;;;58.90;26.38;;;13.40;91.70;;;;;;5112338;28;20050;-78
2021/08/17 02:17:16;;;;;;;60.33;25.40;;;13.40;91.70;;;;;;5113885;28;20023;-78
2021/08/17 02:19:42;;;;;;;61.90;26.05;;;13.40;91.70;;;;;;5114426;28;20104;-77
2021/08/17 02:22:07;;;;;;;65.78;26.98;;;13.30;91.70;;;;;;5062777;28;20067;-77
2021/08/17 02:24:33;;;;;;;60.13;25.35;;;13.30;91.70;;;;;;5114281;28;20389;-77
2021/08/17 02:26:58;;;;;;;63.60;26.95;;;13.30;91.70;;;;;;5113996;28;20062;-77
2021/08/17 02:29:24;;;;;;;64.97;28.75;;;13.30;91.80;;;;;;5114131;28;20101;-78
2021/08/17 02:31:50;;;;;;;80.50;29.92;;;13.30;91.90;;;;;;5103221;28;20027;-77
2021/08/17 02:34:15;;;;;;;65.07;26.42;;;13.30;91.90;;;;;;5114273;28;20031;-77
2021/08/17 02:36:41;;;;;;;64.93;27.23;;;13.30;91.90;;;;;;5095807;28;20030;-77
2021/08/17 02:39:07;;;;;;;57.10;24.63;;;13.20;91.90;;;;;;5095837;28;20440;-77
2021/08/17 02:41:33;;;;;;;63.78;27.20;;;13.30;91.90;;;;;;5113895;28;20470;-77
2021/08/17 02:43:58;;;;;;;60.65;26.60;;;13.20;92.20;;;;;;5114102;28;20027;-77
2021/08/17 02:46:24;;;;;;;56.97;25.15;;;13.20;91.90;;;;;;5113276;28;20061;-77
2021/08/17 02:48:50;;;;;;;59.95;25.30;;;13.30;92.00;;;;;;5112425;28;20031;-77
2021/08/17 02:51:16;;;;;;;57.20;26.17;;;13.30;92.00;;;;;;5094559;28;20633;-77
2021/08/17 02:53:42;;;;;;;53.95;24.27;;;13.30;92.00;;;;;;5095777;28;20026;-77
2021/08/17 02:56:07;;;;;;;56.40;25.05;;;13.30;92.10;;;;;;5113823;28;20028;-77
2021/08/17 02:58:33;;;;;;;53.47;25.17;;;13.30;92.10;;;;;;5095709;28;20031;-77
2021/08/17 03:00:58;;;;;;;61.65;25.75;;;13.40;92.20;;;;;;5113419;28;20032;-78
2021/08/17 03:03:24;;;;;;;67.05;26.40;;;13.40;92.30;;;;;;5111705;28;20043;-77
2021/08/17 03:05:50;;;;;;;64.80;25.75;;;13.40;92.30;;;;;;5073556;28;20036;-77
2021/08/17 03:08:15;;;;;;;60.60;25.42;;;13.40;92.30;;;;;;5113463;28;20078;-77
2021/08/17 03:10:41;;;;;;;65.07;26.70;;;13.40;92.40;;;;;;5095494;28;20426;-77
2021/08/17 03:13:08;;;;;;;59.65;25.40;;;13.40;92.40;;;;;;5113446;28;20027;-77
2021/08/17 03:15:34;;;;;;;60.22;24.60;;;13.40;92.40;;;;;;5095198;28;20088;-77
2021/08/17 03:18:01;;;;;;;69.13;26.52;;;13.40;92.40;;;;;;5113557;28;20035;-77
2021/08/17 03:20:27;;;;;;;65.95;26.35;;;13.40;92.50;;;;;;5113541;28;20028;-77
2021/08/17 03:22:54;;;;;;;66.30;24.52;;;13.40;92.50;;;;;;5113359;28;20074;-77
2021/08/17 03:25:19;;;;;;;52.40;23.50;;;13.50;92.50;;;;;;5113533;28;20084;-77
2021/08/17 03:27:45;;;;;;;60.10;25.48;;;13.50;92.50;;;;;;5084996;28;20051;-77
2021/08/17 03:30:16;;;;;;;66.85;27.48;;;13.50;92.50;;;;;;5095309;28;20032;-77
2021/08/17 03:32:43;;;;;;;61.13;25.67;;;13.50;92.60;;;;;;5113027;28;20015;-77
2021/08/17 03:35:10;;;;;;;67.15;25.35;;;13.50;92.60;;;;;;5096930;28;20020;-77
2021/08/17 03:37:38;;;;;;;63.10;26.13;;;13.50;92.60;;;;;;5095000;28;20024;-77
2021/08/17 03:40:09;;;;;;;53.92;23.17;;;13.50;92.60;;;;;;5113213;28;20028;-77
2021/08/17 03:42:36;;;;;;;59.53;23.60;;;13.60;92.60;;;;;;5102854;28;20028;-77
2021/08/17 03:45:02;;;;;;;68.32;26.85;;;13.50;92.60;;;;;;5113179;28;20040;-77
2021/08/17 03:47:28;;;;;;;56.08;24.95;;;13.60;92.60;;;;;;5113267;28;20036;-77
2021/08/17 03:49:53;;;;;;;64.75;26.10;;;13.50;92.50;;;;;;5112836;28;20020;-77
2021/08/17 03:52:19;;;;;;;61.42;26.30;;;13.50;92.50;;;;;;5089969;28;20371;-78
2021/08/17 03:54:44;;;;;;;63.88;26.63;;;13.50;92.50;;;;;;5094826;28;20036;-77
2021/08/17 03:57:10;;;;;;;57.90;24.73;;;13.50;92.50;;;;;;5112823;28;20031;-77
2021/08/17 03:59:36;;;;;;;59.35;25.25;;;13.50;92.60;;;;;;5092842;28;20039;-77
2021/08/17 04:02:01;;;;;;;68.57;25.77;;;13.50;92.60;;;;;;5106998;28;20032;-77
2021/08/17 04:04:27;;;;;;;65.65;25.92;;;13.60;92.60;;;;;;5112596;28;20038;-78
2021/08/17 04:06:53;;;;;;;62.58;25.50;;;13.50;92.60;;;;;;5094617;28;20039;-78
2021/08/17 04:09:18;;;;;;;62.72;25.50;;;13.60;92.60;;;;;;5113055;28;20024;-77
2021/08/17 04:11:44;;;;;;;53.08;23.85;;;13.50;92.50;;;;;;5094543;28;20104;-77
2021/08/17 04:14:09;;;;;;;61.22;24.00;;;13.60;92.60;;;;;;5094193;28;20028;-77
2021/08/17 04:16:35;;;;;;;64.65;25.60;;;13.50;92.50;;;;;;5110375;28;20028;-77
2021/08/17 04:19:01;;;;;;;65.90;25.77;;;13.60;92.50;;;;;;5098488;28;20035;-77
2021/08/17 04:21:26;;;;;;;62.15;24.92;;;13.50;92.50;;;;;;5098378;28;20031;-77
2021/08/17 04:23:52;;;;;;;54.60;23.60;;;13.60;92.50;;;;;;5095883;28;20043;-77
2021/08/17 04:26:18;;;;;;;48.35;22.52;;;13.60;92.50;;;;;;5115879;28;20035;-77
2021/08/17 04:28:44;;;;;;;58.92;24.35;;;13.60;92.60;;;;;;5115382;28;20039;-78
2021/08/17 04:31:09;;;;;;;56.10;24.02;;;13.60;92.50;;;;;;5098354;28;20024;-77
2021/08/17 04:33:35;;;;;;;60.78;24.48;;;13.60;92.80;;;;;;5113336;28;20084;-78
2021/08/17 04:36:01;;;;;;;56.35;24.13;;;13.70;92.50;;;;;;5098057;28;20028;-77
2021/08/17 04:38:26;;;;;;;59.60;24.60;;;13.60;92.50;;;;;;5098185;28;20388;-77
2021/08/17 04:40:52;;;;;;;52.05;22.40;;;13.70;92.50;;;;;;5098627;28;20027;-77
2021/08/17 04:43:17;;;;;;;54.33;22.85;;;13.70;92.50;;;;;;5080583;28;20027;-73
2021/08/17 04:45:43;;;;;;;52.47;23.30;;;13.60;92.50;;;;;;5093889;28;20047;-73
2021/08/17 04:48:09;;;;;;;54.25;22.23;;;13.60;92.40;;;;;;5057680;28;20035;-73
2021/08/17 04:50:34;;;;;;;64.03;24.15;;;13.60;92.40;;;;;;5094700;28;20506;-74
2021/08/17 04:53:00;;;;;;;49.15;22.55;;;13.60;92.40;;;;;;5046636;28;20103;-73
2021/08/17 04:55:25;;;;;;;55.33;23.23;;;13.60;92.50;;;;;;5074335;28;20052;-73
2021/08/17 04:57:59;;;;;;;53.15;22.23;;;13.60;92.50;;;;;;5075808;28;20027;-73
2021/08/17 05:00:26;;;;;;;57.35;22.75;;;13.60;92.50;;;;;;5096519;28;20066;-73
2021/08/17 05:02:52;;;;;;;53.15;23.38;;;13.60;92.50;;;;;;5096232;28;20131;-74
2021/08/17 05:05:19;;;;;;;52.75;22.83;;;13.60;92.50;;;;;;5114200;28;20364;-74
2021/08/17 05:07:45;;;;;;;53.38;22.75;;;13.60;92.50;;;;;;5114384;28;20089;-74
2021/08/17 05:10:14;;;;;;;53.63;22.42;;;13.70;92.40;;;;;;5094250;28;20095;-73
2021/08/17 05:12:41;;;;;;;59.67;23.02;;;13.70;92.50;;;;;;5096000;28;20066;-73
2021/08/17 05:15:08;;;;;;;52.55;23.15;;;13.70;92.40;;;;;;5094982;28;20027;-73
2021/08/17 05:17:34;;;;;;;65.05;25.33;;;13.80;92.40;;;;;;5114101;28;20019;-74
2021/08/17 05:20:00;;;;;;;57.83;24.35;;;13.80;92.40;;;;;;5114102;28;20039;-73
2021/08/17 05:22:25;;;;;;;60.38;24.80;;;13.80;92.50;;;;;;5113661;28;20039;-74
2021/08/17 05:24:51;;;;;;;52.17;23.35;;;13.90;92.50;;;;;;5089836;28;20028;-73
2021/08/17 05:27:17;;;;;;;50.70;22.30;;;13.90;92.50;;;;;;5087724;28;20077;-74
2021/08/17 05:29:43;;;;;;;51.85;22.65;;;14.00;92.50;;;;;;5112470;28;20030;-73
2021/08/17 05:32:09;;;;;;;50.80;22.13;;;14.00;92.40;;;;;;5096046;28;20027;-74
2021/08/17 05:34:35;;;;;;;50.17;22.67;;;14.00;92.40;;;;;;5095689;28;20027;-73
2021/08/17 05:37:01;;;;;;;52.65;22.67;;;14.10;92.50;;;;;;5095592;28;20069;-73
2021/08/17 05:39:27;;;;;;;49.88;22.20;;;14.10;92.50;;;;;;5113322;28;20016;-74
2021/08/17 05:41:52;;;;;;;53.60;24.15;;;14.10;92.40;;;;;;5112210;28;20085;-73
2021/08/17 05:44:18;;;;;;;58.30;23.60;;;14.20;92.40;;;;;;5113425;28;20158;-74
2021/08/17 05:46:44;;;;;;;65.88;25.70;;;14.30;92.40;;;;;;5090256;28;20038;-73
2021/08/17 05:49:10;;;;;;;57.38;23.45;;;14.30;92.40;;;;;;5094311;28;20069;-74
2021/08/17 05:51:36;;;;;;;57.63;22.98;;;14.30;92.40;;;;;;5095793;28;20023;-74
2021/08/17 05:54:02;;;;;;;51.50;22.30;;;14.40;92.40;;;;;;5112847;28;20067;-74
2021/08/17 05:56:28;;;;;;;55.92;24.33;;;14.40;92.30;;;;;;5075585;28;20033;-73
2021/08/17 05:58:53;;;;;;;48.67;21.63;;;14.50;92.30;;;;;;5074144;28;20028;-74
2021/08/17 06:01:19;;;;;;;57.58;23.77;;;14.50;92.20;;;;;;5075187;28;20035;-74
2021/08/17 06:03:45;;;;;;;54.28;23.73;;;14.60;92.50;;;;;;5095456;28;20042;-73
2021/08/17 06:06:11;;;;;;;56.10;23.75;;;14.60;92.10;;;;;;5093374;28;20040;-73
2021/08/17 06:08:37;;;;;;;61.67;25.17;;;14.70;92.10;;;;;;5095892;28;20034;-73
2021/08/17 06:11:02;;;;;;;61.45;25.02;;;14.70;92.10;;;;;;5080547;28;20036;-73
2021/08/17 06:13:28;;;;;;;56.88;24.05;;;14.70;92.20;;;;;;5080696;28;20104;-73
2021/08/17 06:15:54;;;;;;;51.90;22.55;;;14.80;92.10;;;;;;5096141;28;20062;-74
2021/08/17 06:18:20;;;;;;;66.32;25.83;;;14.80;92.10;;;;;;5113911;28;20055;-74
2021/08/17 06:20:46;;;;;;;61.67;24.55;;;14.80;92.10;;;;;;5107285;28;20124;-73
2021/08/17 06:23:11;;;;;;;54.53;23.27;;;14.90;92.00;;;;;;5113650;28;20032;-75
2021/08/17 06:25:37;;;;;;;60.15;24.27;;;14.90;92.00;;;;;;5113131;28;20036;-75
2021/08/17 06:28:10;;;;;;;53.05;23.15;;;14.90;92.00;;;;;;5070404;28;20059;-75
2021/08/17 06:30:37;;;;;;;57.60;25.17;;;14.90;92.10;;;;;;5087570;28;20028;-75
2021/08/17 06:33:03;;;;;;;61.30;24.10;;;14.90;92.00;;;;;;5113601;28;20552;-75
2021/08/17 06:35:29;;;;;;;54.90;22.80;;;15.00;92.00;;;;;;5105232;28;20040;-75
2021/08/17 06:37:54;;;;;;;59.42;24.65;;;15.00;92.00;;;;;;5108209;28;20589;-75
2021/08/17 06:40:20;;;;;;;50.38;22.80;;;15.00;92.00;;;;;;5068426;28;20248;-75
2021/08/17 06:42:46;;;;;;;58.45;23.38;;;15.10;92.00;;;;;;5064555;28;20024;-75
2021/08/17 06:45:13;;;;;;;53.67;23.95;;;15.10;91.90;;;;;;5104125;28;20031;-75
2021/08/17 06:47:49;;;;;;;63.33;24.67;;;15.20;91.90;;;;;;5096953;28;20105;-75
2021/08/17 06:50:18;;;;;;;47.05;22.02;;;15.20;91.70;;;;;;5107785;28;20028;-75
2021/08/17 06:52:44;;;;;;;;;;;15.20;91.60;;;;;;5096936;28;20027;-75
2021/08/17 06:55:10;;;;;;;51.92;23.85;;;15.30;91.60;;;;;;5093265;28;19919;-75
2021/08/17 06:57:37;;;;;;;58.05;24.25;;;15.30;91.70;;;;;;5100920;28;20028;-75
2021/08/17 07:00:07;;;;;;;56.28;24.08;;;15.30;91.70;;;;;;5096839;28;20380;-75
2021/08/17 07:02:33;;;;;;;53.53;23.35;;;15.40;91.70;;;;;;5080161;28;20020;-75
2021/08/17 07:04:59;;;;;;;57.58;24.25;;;15.40;91.60;;;;;;5093861;28;20028;-75
2021/08/17 07:07:25;;;;;;;50.78;22.15;;;15.50;91.50;;;;;;5101363;28;20035;-75
2021/08/17 07:09:50;;;;;;;49.40;21.83;;;15.50;91.50;;;;;;5097389;28;20035;-75
2021/08/17 07:12:16;;;;;;;51.08;22.63;;;15.50;91.50;;;;;;5111562;28;20057;-75
2021/08/17 07:14:42;;;;;;;49.78;22.67;;;15.60;91.50;;;;;;5082196;28;20039;-75
2021/08/17 07:17:07;;;;;;;57.85;26.00;;;15.60;91.50;;;;;;5107198;28;20027;-75
2021/08/17 07:19:34;;;;;;;53.30;23.52;;;15.60;91.50;;;;;;5077141;28;20050;-75
2021/08/17 07:22:01;;;;;;;47.67;22.50;;;15.70;91.50;;;;;;5088075;28;20097;-75
2021/08/17 07:24:27;;;;;;;56.13;23.67;;;15.70;91.40;;;;;;5069734;28;20460;-75
2021/08/17 07:26:52;;;;;;;51.67;23.83;;;15.90;91.40;;;;;;5109273;28;20043;-75
2021/08/17 07:29:18;;;;;;;55.97;22.35;;;16.00;91.20;;;;;;5110809;28;20130;-75
2021/08/17 07:31:44;;;;;;;55.72;24.25;;;16.20;91.00;;;;;;5085525;28;20118;-75
2021/08/17 07:34:09;;;;;;;51.63;21.48;;;16.30;90.70;;;;;;5112857;28;20122;-75
2021/08/17 07:36:36;;;;;;;54.08;22.60;;;16.30;90.70;;;;;;5076079;28;20036;-75
2021/08/17 07:39:09;;;;;;;46.35;20.92;;;16.40;90.70;;;;;;5094758;28;20035;-75
2021/08/17 07:41:35;;;;;;;44.47;21.00;;;16.60;90.60;;;;;;5112011;28;20049;-75
2021/08/17 07:44:02;;;;;;;45.38;21.38;;;16.70;90.40;;;;;;5109494;28;20113;-75
2021/08/17 07:46:28;;;;;;;44.13;21.17;;;16.90;90.20;;;;;;5100764;28;20024;-75
2021/08/17 07:48:54;;;;;;;46.38;20.77;;;17.00;89.90;;;;;;5079625;28;20040;-75
2021/08/17 07:51:20;;;;;;;46.72;20.55;;;17.20;89.50;;;;;;5110086;28;20032;-74
2021/08/17 07:53:45;;;;;;;41.42;19.92;;;17.30;88.80;;;;;;5112589;28;20031;-74
2021/08/17 07:56:11;;;;;;;44.10;20.52;;;17.40;88.20;;;;;;5089943;28;20039;-74
2021/08/17 07:58:37;;;;;;;45.60;20.90;;;17.60;88.10;;;;;;5093858;28;20388;-75
2021/08/17 08:01:03;;;;;;;42.17;20.40;;;17.60;87.60;;;;;;5077597;28;20088;-74
2021/08/17 08:03:28;;;;;;;44.35;19.80;;;17.60;87.30;;;;;;5112535;28;20035;-75
2021/08/17 08:05:54;;;;;;;40.65;20.30;;;17.60;86.60;;;;;;5088091;28;20033;-75
2021/08/17 08:08:20;;;;;;;42.33;20.60;;;17.50;86.80;;;;;;5072066;28;20086;-75
2021/08/17 08:10:45;;;;;;;45.30;20.33;;;17.40;87.10;;;;;;5053976;28;20029;-75
2021/08/17 08:13:11;;;;;;;43.60;19.42;;;17.30;87.60;;;;;;5071681;28;20092;-75
2021/08/17 08:15:37;;;;;;;37.15;19.15;;;17.20;88.50;;;;;;5112246;28;20019;-74
2021/08/17 08:18:03;;;;;;;41.20;19.48;;;17.20;88.10;;;;;;5112158;28;20077;-74
2021/08/17 08:20:29;;;;;;;43.33;19.58;;;17.40;88.10;;;;;;5112371;28;20031;-75
2021/08/17 08:22:55;;;;;;;43.05;19.90;;;17.50;87.60;;;;;;5078895;28;20040;-75
2021/08/17 08:25:21;;;;;;;39.58;18.80;;;17.60;87.30;;;;;;5099521;28;20049;-74
2021/08/17 08:27:47;;;;;;;33.38;18.13;;;17.70;86.80;;;;;;5112079;28;20060;-75
2021/08/17 08:30:13;;;;;;;40.10;18.33;;;17.70;86.40;;;;;;5112084;28;20098;-74
2021/08/17 08:32:39;;;;;;;37.80;18.35;;;17.70;86.00;;;;;;5112214;28;20020;-74
2021/08/17 08:35:07;;;;;;;39.58;18.67;;;17.70;86.60;;;;;;5093960;28;20054;-75
2021/08/17 08:37:33;;;;;;;39.30;19.20;;;17.70;86.40;;;;;;5112308;28;20031;-75
2021/08/17 08:39:58;;;;;;;39.33;16.95;;;17.80;85.90;;;;;;5085019;28;20036;-75
2021/08/17 08:42:26;;;;;;;37.65;18.63;;;17.70;85.50;;;;;;5091721;28;20024;-75
2021/08/17 08:44:53;;;;;;;36.65;16.30;;;17.70;85.80;;;;;;5091917;28;20032;-79
2021/08/17 08:47:20;;;;;;;32.38;17.38;;;17.80;85.90;;;;;;5092967;28;20078;-79
2021/08/17 08:49:48;;;;;;;34.03;16.98;;;18.00;86.10;;;;;;5074943;28;20059;-79
2021/08/17 08:52:14;;;;;;;29.25;15.25;;;18.30;83.70;;;;;;5058233;28;20051;-78
2021/08/17 08:54:40;;;;;;;32.38;16.88;;;18.60;83.70;;;;;;5092713;28;20059;-79
2021/08/17 08:57:05;;;;;;;33.28;17.05;;;18.80;83.20;;;;;;5057905;28;20031;-79
2021/08/17 08:59:31;;;;;;;31.90;16.00;;;19.10;82.30;;;;;;5074746;28;20399;-79
2021/08/17 09:02:11;;;;;;;35.65;16.33;;;19.20;81.80;;;;;;5092180;28;20081;-79
2021/08/17 09:04:37;;;;;;;31.17;16.38;;;19.10;81.50;;;;;;5096105;28;20042;-79
2021/08/17 09:07:04;;;;;;;29.63;15.48;;;18.90;81.70;;;;;;5115995;28;20020;-79
2021/08/17 09:09:30;;;;;;;32.88;14.77;;;18.70;80.90;;;;;;5115848;28;20034;-79
2021/08/17 09:11:58;;;;;;;30.15;15.10;;;18.60;81.30;;;;;;5098190;28;20023;-79
2021/08/17 09:14:27;;;;;;;28.73;14.77;;;18.50;81.60;;;;;;5098185;28;20024;-73
2021/08/17 09:16:59;;;;;;;26.92;13.95;;;18.50;82.00;;;;;;5074941;28;20028;-73
2021/08/17 09:19:25;;;;;;;26.00;14.95;;;18.40;82.10;;;;;;5074959;28;20020;-73
2021/08/17 09:21:51;;;;;;;29.20;14.25;;;18.40;81.80;;;;;;5082993;28;20050;-73
2021/08/17 09:24:28;;;;;;;25.30;12.98;;;18.40;81.30;;;;;;5093384;28;20062;-74
2021/08/17 09:26:55;;;;;;;23.00;12.77;;;18.40;82.10;;;;;;5059651;28;20043;-75
2021/08/17 09:29:32;;;;;;;25.77;12.45;;;18.40;81.90;;;;;;5075151;28;20132;-74
2021/08/17 09:32:01;;;;;;;25.83;11.95;;;18.40;81.60;;;;;;5077614;28;20082;-74
2021/08/17 09:34:32;;;;;;;25.13;11.60;;;18.30;81.00;;;;;;5099180;28;20053;-78
2021/08/17 09:37:00;;;;;;;22.38;11.75;;;18.30;80.80;;;;;;5090767;28;20031;-77
2021/08/17 09:39:27;;;;;;;25.63;12.10;;;18.30;80.70;;;;;;5090615;28;20016;-78
2021/08/17 09:42:09;;;;;;;25.40;12.23;;;18.20;81.00;;;;;;5091820;28;20020;-77
2021/08/17 09:44:35;;;;;;;27.38;11.75;;;18.10;81.00;;;;;;5091198;28;20024;-76
2021/08/17 09:47:01;;;;;;;25.95;12.88;;;18.10;81.80;;;;;;5091011;28;20039;-76
2021/08/17 09:49:29;;;;;;;21.02;11.20;;;18.00;81.80;;;;;;5091158;28;20036;-76
2021/08/17 09:51:57;;;;;;;20.05;11.57;;;17.90;81.50;;;;;;5091757;28;20595;-76
2021/08/17 09:54:24;;;;;;;21.67;12.48;;;17.90;81.90;;;;;;5091535;28;20029;-76
2021/08/17 09:57:02;;;;;;;21.65;11.48;;;17.90;82.20;;;;;;5073386;28;20024;-76
2021/08/17 09:59:31;;;;;;;22.52;11.77;;;17.90;82.50;;;;;;5091301;28;20059;-77
2021/08/17 10:01:58;;;;;;;23.38;12.32;;;17.90;82.00;;;;;;5090786;28;20020;-76
2021/08/17 10:04:24;;;;;;;23.95;12.02;;;17.80;82.30;;;;;;5090860;28;20032;-77
2021/08/17 10:06:51;;;;;;;22.45;11.27;;;17.80;82.30;;;;;;5072146;28;20044;-76
2021/08/17 10:09:17;;;;;;;20.85;10.52;;;17.80;82.60;;;;;;5072482;28;20437;-76
2021/08/17 10:11:44;;;;;;;20.70;10.77;;;17.70;82.40;;;;;;5091056;28;20530;-76
2021/08/17 10:14:14;;;;;;;18.17;9.73;;;17.70;82.20;;;;;;5072196;28;20326;-76
2021/08/17 10:16:44;;;;;;;17.08;8.27;;;17.60;81.70;;;;;;5072980;28;20020;-76
2021/08/17 10:19:18;;;;;;;18.08;8.68;;;17.60;81.20;;;;;;5090459;28;20028;-76
2021/08/17 10:21:47;;;;;;;17.48;7.63;;;17.60;81.50;;;;;;5073172;28;20039;-76
2021/08/17 10:24:22;;;;;;;;;;;17.50;82.10;;;;;;5091347;28;20027;-77
2021/08/17 10:26:48;;;;;;;17.25;8.25;;;17.50;82.30;;;;;;5072483;28;19912;-77
2021/08/17 10:29:27;;;;;;;13.43;7.20;;;17.50;82.30;;;;;;5073176;28;20866;-77
2021/08/17 10:31:53;;;;;;;13.68;7.63;;;17.50;81.60;;;;;;5090636;28;20578;-77
2021/08/17 10:34:35;;;;;;;13.77;6.80;;;17.40;81.90;;;;;;5072511;28;20127;-77
2021/08/17 10:37:19;;;;;;;14.43;7.35;;;17.40;82.10;;;;;;5072122;28;20043;-77
2021/08/17 10:39:45;;;;;;;17.48;7.43;;;17.40;81.90;;;;;;5090468;28;20089;-77
2021/08/17 10:42:23;;;;;;;14.05;7.28;;;17.30;81.80;;;;;;5070602;28;20036;-77
2021/08/17 10:44:49;;;;;;;14.30;7.32;;;17.30;81.80;;;;;;5090135;28;20021;-77
2021/08/17 10:47:35;;;;;;;17.80;7.63;;;17.20;82.40;;;;;;5093488;28;20133;-77
2021/08/17 10:50:01;;;;;;;12.52;7.35;;;17.20;82.90;;;;;;5102959;28;20048;-77
2021/08/17 10:52:35;;;;;;;16.33;7.28;;;17.20;83.00;;;;;;5113170;28;20031;-77
2021/08/17 10:55:22;;;;;;;15.60;6.97;;;17.10;82.40;;;;;;5099998;28;20032;-78
2021/08/17 10:57:51;;;;;;;16.02;7.53;;;17.10;82.30;;;;;;5073200;28;20110;-74
2021/08/17 11:00:35;;;;;;;;;;;17.00;82.40;;;;;;5113330;28;20357;-74
2021/08/17 11:03:04;;;;;;;10.93;6.22;;;17.00;81.90;;;;;;5054269;28;19913;-74
2021/08/17 11:05:50;;;;;;;12.45;6.30;;;16.90;82.20;;;;;;5072665;28;20058;-74
2021/08/17 11:08:31;;;;;;;12.13;6.00;;;16.90;82.80;;;;;;5054641;28;20032;-74
2021/08/17 11:11:04;;;;;;;15.40;6.85;;;16.90;82.90;;;;;;5091873;28;20106;-74
2021/08/17 11:13:30;;;;;;;16.13;7.00;;;16.90;82.40;;;;;;5086116;28;20019;-74
2021/08/17 11:16:12;;;;;;;14.52;6.50;;;17.00;82.70;;;;;;5113241;28;20114;-74
2021/08/17 11:18:59;;;;;;;15.32;7.18;;;17.00;82.90;;;;;;5096177;28;20033;-73
2021/08/17 11:21:46;;;;;;;12.25;6.88;;;17.00;83.10;;;;;;5094987;28;20024;-74
2021/08/17 11:24:11;;;;;;;14.77;7.20;;;17.10;83.10;;;;;;5106867;28;20103;-74
2021/08/17 11:26:38;;;;;;;12.27;6.55;;;17.10;82.30;;;;;;5092043;28;20099;-74
2021/08/17 11:29:04;;;;;;;13.40;7.18;;;17.20;82.30;;;;;;5056292;28;20110;-74
2021/08/17 11:31:30;;;;;;;15.32;6.80;;;17.20;82.30;;;;;;5050532;28;20103;-74
2021/08/17 11:34:17;;;;;;;12.90;7.05;;;17.30;82.00;;;;;;5038866;28;20116;-74
2021/08/17 11:37:06;;;;;;;15.32;7.63;;;17.30;81.50;;;;;;5072094;28;20052;-73
2021/08/17 11:39:47;;;;;;;12.70;6.78;;;17.40;81.20;;;;;;5062786;28;20081;-79
2021/08/17 11:42:15;;;;;;;16.30;6.70;;;17.40;81.20;;;;;;5032089;28;20029;-80
2021/08/17 11:44:41;;;;;;;15.35;7.47;;;17.40;81.80;;;;;;5033320;28;20184;-80
2021/08/17 11:47:11;;;;;;;16.33;8.63;;;17.40;81.30;;;;;;5034058;28;20033;-80
2021/08/17 11:49:37;;;;;;;15.75;7.35;;;17.40;81.30;;;;;;5033277;28;20067;-80
2021/08/17 11:52:21;;;;;;;14.13;7.00;;;17.40;81.20;;;;;;5046980;28;20032;-80
2021/08/17 11:54:48;;;;;;;16.30;7.90;;;17.40;81.50;;;;;;5031747;28;20041;-80
2021/08/17 11:57:29;;;;;;;21.40;7.90;;;17.50;81.30;;;;;;5032364;28;20021;-80
2021/08/17 11:59:56;;;;;;;14.10;7.22;;;17.50;80.90;;;;;;5033194;28;20378;-80
2021/08/17 12:02:25;;;;;;;15.32;7.30;;;17.50;80.80;;;;;;5032877;28;20018;-80
2021/08/17 12:04:59;;;;;;;14.88;7.22;;;17.40;78.90;;;;;;5034727;28;20026;-80
2021/08/17 12:07:29;;;;;;;12.13;7.63;;;17.50;79.80;;;;;;5052913;28;20031;-80
2021/08/17 12:10:01;;;;;;;14.27;7.68;;;17.40;80.80;;;;;;5053024;28;20470;-80
2021/08/17 12:12:55;;;;;;;17.48;7.85;;;17.40;81.20;;;;;;5051922;28;20021;-80
2021/08/17 12:15:27;;;;;;;18.45;8.65;;;17.40;82.20;;;;;;5052954;28;20354;-80
2021/08/17 12:18:00;;;;;;;14.20;8.00;;;17.40;83.40;;;;;;5053037;28;20021;-80
2021/08/17 12:20:26;;;;;;;11.93;7.63;;;17.40;83.40;;;;;;5036305;28;20040;-80
2021/08/17 12:22:52;;;;;;;17.38;8.00;;;17.50;83.10;;;;;;5069888;28;20039;-80
2021/08/17 12:25:23;;;;;;;15.93;7.53;;;17.50;82.50;;;;;;5072963;28;20032;-79
2021/08/17 12:27:54;;;;;;;15.20;7.85;;;17.50;82.70;;;;;;5081330;28;20492;-80
2021/08/17 12:30:32;;;;;;;14.43;7.75;;;17.60;83.10;;;;;;5095245;28;20096;-80
2021/08/17 12:32:59;;;;;;;13.30;8.10;;;17.60;82.50;;;;;;5095146;28;20020;-80